createdAt,value
2018-12-17T00:01:15.124Z,8.30
2018-12-17T00:03:42.288Z,8.77
2018-12-17T00:06:09.697Z,8.60
2018-12-17T00:08:37.113Z,8.90
2018-12-17T00:11:04.420Z,8.40
2018-12-17T00:13:31.568Z,8.60
2018-12-17T00:15:58.772Z,8.27
2018-12-17T00:18:25.945Z,7.57
2018-12-17T00:20:53.099Z,8.13
2018-12-17T00:23:20.263Z,7.97
2018-12-17T00:25:47.475Z,8.03
2018-12-17T00:28:14.659Z,8.17
2018-12-17T00:30:41.812Z,8.13
2018-12-17T00:33:08.975Z,8.10
2018-12-17T00:35:36.176Z,8.40
2018-12-17T00:38:03.339Z,8.60
2018-12-17T00:40:31.013Z,7.93
2018-12-17T00:42:58.242Z,8.30
2018-12-17T00:45:25.412Z,8.73
2018-12-17T00:47:52.685Z,8.30
2018-12-17T00:50:19.865Z,8.77
2018-12-17T00:52:47.019Z,8.13
2018-12-17T00:55:14.185Z,8.60
2018-12-17T00:57:41.328Z,8.30
2018-12-17T01:00:09.115Z,8.30
2018-12-17T01:02:36.384Z,8.40
2018-12-17T01:05:03.671Z,8.73
2018-12-17T01:07:31.308Z,8.30
2018-12-17T01:09:58.492Z,7.97
2018-12-17T01:12:25.684Z,8.80
2018-12-17T01:14:52.857Z,8.30
2018-12-17T01:17:19.991Z,8.10
2018-12-17T01:19:47.143Z,8.30
2018-12-17T01:22:14.397Z,8.53
2018-12-17T01:24:41.543Z,8.67
2018-12-17T01:27:08.699Z,9.30
2018-12-17T01:29:35.851Z,8.40
2018-12-17T01:32:03.016Z,9.30
2018-12-17T01:34:30.168Z,8.60
2018-12-17T01:36:57.328Z,8.43
2018-12-17T01:39:24.483Z,8.00
2018-12-17T01:41:51.668Z,7.73
2018-12-17T01:44:18.812Z,8.67
2018-12-17T01:46:45.977Z,7.73
2018-12-17T01:49:13.148Z,8.10
2018-12-17T01:51:40.302Z,8.30
2018-12-17T01:54:07.456Z,9.03
2018-12-17T01:56:34.613Z,8.17
2018-12-17T01:59:01.783Z,8.30
2018-12-17T02:01:28.932Z,9.03
2018-12-17T02:03:56.097Z,7.90
2018-12-17T02:06:23.259Z,8.00
2018-12-17T02:08:50.537Z,7.53
2018-12-17T02:11:17.687Z,7.40
2018-12-17T02:13:45.041Z,7.90
2018-12-17T02:16:12.168Z,8.50
2018-12-17T02:18:39.329Z,8.00
2018-12-17T02:21:06.507Z,8.03
2018-12-17T02:23:33.667Z,7.70
2018-12-17T02:26:00.827Z,7.67
2018-12-17T02:28:28.015Z,7.67
2018-12-17T02:30:55.176Z,7.57
2018-12-17T02:33:22.331Z,8.77
2018-12-17T02:35:49.491Z,7.57
2018-12-17T02:38:16.653Z,7.07
2018-12-17T02:40:43.803Z,7.30
2018-12-17T02:43:10.944Z,7.87
2018-12-17T02:45:38.108Z,7.30
2018-12-17T02:48:05.268Z,7.20
2018-12-17T02:50:32.433Z,8.27
2018-12-17T02:52:59.592Z,7.87
2018-12-17T02:55:26.760Z,7.57
2018-12-17T02:57:53.914Z,7.60
2018-12-17T03:00:21.112Z,7.90
2018-12-17T03:02:48.286Z,7.80
2018-12-17T03:05:15.453Z,7.07
2018-12-17T03:07:42.602Z,7.30
2018-12-17T03:10:09.862Z,7.93
2018-12-17T03:12:37.015Z,8.03
2018-12-17T03:15:04.551Z,7.30
2018-12-17T03:17:31.699Z,7.50
2018-12-17T03:19:58.869Z,7.87
2018-12-17T03:22:26.030Z,7.20
2018-12-17T03:24:53.186Z,8.43
2018-12-17T03:27:20.344Z,7.63
2018-12-17T03:29:47.500Z,8.13
2018-12-17T03:32:14.770Z,7.10
2018-12-17T03:34:41.949Z,8.10
2018-12-17T03:37:09.155Z,7.13
2018-12-17T03:39:36.422Z,7.57
2018-12-17T03:42:03.683Z,8.00
2018-12-17T03:44:30.835Z,8.40
2018-12-17T03:46:58.018Z,8.57
2018-12-17T03:49:25.172Z,7.50
2018-12-17T03:51:52.328Z,8.00
2018-12-17T03:54:19.728Z,7.97
2018-12-17T03:56:46.908Z,8.30
2018-12-17T03:59:14.068Z,7.77
2018-12-17T04:01:41.238Z,7.93
2018-12-17T04:04:08.428Z,7.50
2018-12-17T04:06:35.680Z,8.40
2018-12-17T04:09:03.955Z,8.33
2018-12-17T04:11:31.123Z,7.23
2018-12-17T04:13:58.416Z,8.30
2018-12-17T04:16:25.680Z,8.07
2018-12-17T04:18:52.953Z,8.50
2018-12-17T04:21:20.973Z,8.13
2018-12-17T04:23:48.274Z,7.73
2018-12-17T04:26:15.700Z,7.07
2018-12-17T04:28:43.032Z,7.63
2018-12-17T04:31:10.324Z,8.47
2018-12-17T04:33:39.036Z,7.63
2018-12-17T04:36:06.239Z,7.17
2018-12-17T04:38:33.501Z,7.90
2018-12-17T04:43:52.855Z,8.37
2018-12-17T04:46:20.005Z,7.97
2018-12-17T04:48:47.184Z,8.43
2018-12-17T04:51:14.457Z,7.80
2018-12-17T04:53:41.672Z,7.83
2018-12-17T04:56:08.842Z,8.17
2018-12-17T04:58:35.998Z,7.60
2018-12-17T05:01:03.156Z,8.13
2018-12-17T05:03:30.328Z,8.10
2018-12-17T05:05:57.511Z,8.50
2018-12-17T05:08:24.804Z,8.50
2018-12-17T05:10:52.086Z,8.40
2018-12-17T05:13:19.261Z,8.20
2018-12-17T05:15:46.436Z,9.00
2018-12-17T05:18:13.601Z,8.60
2018-12-17T05:20:40.759Z,8.90
2018-12-17T05:23:07.915Z,8.50
2018-12-17T05:25:35.083Z,8.10
2018-12-17T05:28:02.244Z,8.27
2018-12-17T05:30:29.461Z,8.23
2018-12-17T05:32:56.754Z,8.07
2018-12-17T05:35:23.945Z,8.60
2018-12-17T05:37:51.104Z,8.30
2018-12-17T05:40:18.276Z,8.90
2018-12-17T05:42:45.467Z,8.87
2018-12-17T05:45:12.700Z,8.50
2018-12-17T05:47:39.914Z,8.17
2018-12-17T05:50:07.240Z,8.20
2018-12-17T05:52:34.422Z,8.63
2018-12-17T05:55:01.652Z,8.47
2018-12-17T05:57:28.821Z,8.50
2018-12-17T05:59:55.984Z,8.47
2018-12-17T06:02:23.182Z,8.37
2018-12-17T06:04:50.370Z,9.10
2018-12-17T06:07:17.565Z,9.80
2018-12-17T06:09:44.730Z,8.87
2018-12-17T06:12:11.892Z,8.57
2018-12-17T06:14:39.122Z,8.37
2018-12-17T06:17:06.339Z,8.33
2018-12-17T06:19:33.533Z,7.57
2018-12-17T06:22:00.753Z,8.40
2018-12-17T06:24:27.928Z,8.40
2018-12-17T06:26:55.142Z,8.63
2018-12-17T06:29:22.305Z,7.80
2018-12-17T06:31:49.537Z,8.10
2018-12-17T06:34:16.691Z,8.03
2018-12-17T06:36:43.861Z,8.43
2018-12-17T06:39:11.051Z,8.57
2018-12-17T06:41:38.317Z,8.63
2018-12-17T06:44:05.501Z,9.80
2018-12-17T06:46:32.699Z,8.10
2018-12-17T06:48:59.860Z,8.47
2018-12-17T06:51:27.252Z,9.10
2018-12-17T06:53:54.447Z,8.43
2018-12-17T06:56:21.625Z,9.53
2018-12-17T06:58:48.785Z,9.20
2018-12-17T07:01:15.965Z,9.77
2018-12-17T07:03:43.182Z,9.57
2018-12-17T07:06:10.436Z,9.03
2018-12-17T07:08:37.614Z,8.70
2018-12-17T07:11:06.176Z,9.40
2018-12-17T07:13:33.362Z,9.00
2018-12-17T07:16:00.533Z,9.13
2018-12-17T07:18:27.688Z,8.80
2018-12-17T07:20:54.852Z,9.93
2018-12-17T07:23:22.188Z,8.93
2018-12-17T07:25:49.365Z,9.77
2018-12-17T07:28:16.537Z,10.30
2018-12-17T07:30:43.713Z,9.60
2018-12-17T07:33:10.958Z,9.10
2018-12-17T07:35:38.125Z,8.90
2018-12-17T07:38:05.344Z,10.60
2018-12-17T07:40:32.504Z,10.17
2018-12-17T07:42:59.700Z,10.00
2018-12-17T07:45:26.852Z,9.63
2018-12-17T07:47:54.017Z,10.57
2018-12-17T07:50:21.289Z,10.70
2018-12-17T07:52:48.468Z,9.17
2018-12-17T07:55:15.694Z,10.30
2018-12-17T07:57:42.844Z,9.07
2018-12-17T08:00:10.503Z,9.03
2018-12-17T08:02:37.691Z,9.53
2018-12-17T08:05:04.998Z,10.40
2018-12-17T08:07:32.151Z,10.10
2018-12-17T08:09:59.323Z,9.87
2018-12-17T08:12:26.525Z,10.63
2018-12-17T08:14:53.693Z,9.93
2018-12-17T08:17:20.866Z,9.80
2018-12-17T08:19:48.168Z,10.90
2018-12-17T08:22:15.314Z,9.83
2018-12-17T08:24:42.488Z,10.37
2018-12-17T08:27:09.649Z,9.70
2018-12-17T08:29:36.849Z,9.77
2018-12-17T08:32:04.117Z,10.30
2018-12-17T08:34:31.296Z,9.13
2018-12-17T08:36:58.472Z,9.93
2018-12-17T08:39:25.639Z,9.40
2018-12-17T08:41:52.823Z,9.43
2018-12-17T08:44:19.980Z,8.27
2018-12-17T08:46:47.148Z,9.40
2018-12-17T08:49:14.303Z,9.90
2018-12-17T08:51:41.625Z,9.77
2018-12-17T08:54:08.791Z,9.80
2018-12-17T08:56:35.967Z,9.70
2018-12-17T08:59:03.120Z,9.13
2018-12-17T09:01:30.397Z,8.50
2018-12-17T09:03:57.563Z,9.10
2018-12-17T09:06:24.876Z,9.07
2018-12-17T09:08:52.121Z,8.03
2018-12-17T09:11:19.292Z,8.17
2018-12-17T09:13:46.555Z,8.23
2018-12-17T09:16:14.336Z,8.00
2018-12-17T09:18:41.576Z,8.30
2018-12-17T09:21:08.796Z,7.40
2018-12-17T09:23:36.065Z,7.10
2018-12-17T09:26:03.235Z,7.73
2018-12-17T09:28:30.924Z,7.10
2018-12-17T09:30:58.075Z,7.40
2018-12-17T09:33:25.240Z,8.20
2018-12-17T09:35:52.392Z,7.93
2018-12-17T09:38:19.665Z,7.47
2018-12-17T09:40:46.860Z,6.70
2018-12-17T09:43:14.033Z,7.03
2018-12-17T09:45:41.207Z,6.80
2018-12-17T09:48:08.476Z,6.73
2018-12-17T09:50:35.862Z,7.00
2018-12-17T09:53:03.084Z,8.83
2018-12-17T09:55:30.321Z,9.77
2018-12-17T09:57:57.596Z,10.00
2018-12-17T10:00:25.598Z,9.93
2018-12-17T10:02:53.781Z,8.03
2018-12-17T10:05:20.965Z,7.30
2018-12-17T10:07:48.284Z,7.73
2018-12-17T10:10:15.476Z,6.63
2018-12-17T10:12:42.658Z,7.13
2018-12-17T10:15:09.860Z,6.40
2018-12-17T10:17:37.037Z,7.30
2018-12-17T10:20:04.700Z,6.30
2018-12-17T10:22:31.889Z,6.23
2018-12-17T10:24:59.053Z,6.37
2018-12-17T10:27:26.355Z,7.00
2018-12-17T10:29:53.609Z,6.30
2018-12-17T10:32:20.772Z,6.10
2018-12-17T10:34:47.940Z,6.93
2018-12-17T10:37:15.127Z,7.00
2018-12-17T10:39:42.283Z,6.67
2018-12-17T10:42:09.461Z,6.30
2018-12-17T10:44:36.636Z,6.40
2018-12-17T10:47:03.841Z,6.30
2018-12-17T10:49:31.053Z,6.30
2018-12-17T10:51:58.235Z,5.57
2018-12-17T10:54:25.403Z,7.13
2018-12-17T10:56:52.639Z,6.73
2018-12-17T10:59:19.803Z,7.07
2018-12-17T11:02:51.995Z,7.47
2018-12-17T11:05:19.572Z,5.70
2018-12-17T11:07:46.739Z,5.83
2018-12-17T11:10:13.904Z,5.53
2018-12-17T11:12:41.052Z,5.40
2018-12-17T11:15:09.279Z,5.70
2018-12-17T11:17:36.459Z,5.37
2018-12-17T11:20:04.403Z,5.53
2018-12-17T11:22:31.552Z,5.43
2018-12-17T11:24:58.720Z,5.13
2018-12-17T11:27:25.886Z,5.60
2018-12-17T11:29:53.054Z,5.97
2018-12-17T11:32:20.200Z,5.73
2018-12-17T11:34:47.370Z,4.93
2018-12-17T11:37:14.520Z,5.63
2018-12-17T11:39:41.684Z,5.23
2018-12-17T11:42:08.843Z,4.87
2018-12-17T11:44:36.031Z,4.73
2018-12-17T11:47:03.367Z,4.53
2018-12-17T11:49:30.505Z,4.90
2018-12-17T11:51:57.665Z,4.43
2018-12-17T11:54:24.876Z,4.90
2018-12-17T11:57:56.365Z,4.30
2018-12-17T12:00:25.639Z,3.80
2018-12-17T12:02:58.945Z,4.67
2018-12-17T12:05:22.035Z,4.73
2018-12-17T12:07:49.191Z,4.43
2018-12-17T12:10:16.344Z,4.50
2018-12-17T12:12:43.529Z,4.10
2018-12-17T12:15:10.704Z,5.00
2018-12-17T12:17:37.869Z,5.67
2018-12-17T12:20:05.033Z,5.97
2018-12-17T12:22:32.781Z,5.40
2018-12-17T12:25:00.038Z,5.70
2018-12-17T12:27:27.309Z,5.40
2018-12-17T12:29:54.589Z,5.73
2018-12-17T12:32:21.739Z,5.67
2018-12-17T12:34:48.879Z,5.27
2018-12-17T12:37:16.068Z,5.00
2018-12-17T12:39:43.240Z,4.47
2018-12-17T12:42:10.407Z,4.93
2018-12-17T12:44:37.584Z,4.90
2018-12-17T12:47:04.839Z,4.83
2018-12-17T12:49:32.000Z,5.20
2018-12-17T12:51:59.192Z,4.87
2018-12-17T12:54:26.360Z,5.17
2018-12-17T12:56:53.511Z,4.77
2018-12-17T12:59:20.684Z,4.60
2018-12-17T13:01:47.861Z,3.70
2018-12-17T13:04:15.023Z,4.00
2018-12-17T13:06:42.188Z,2.20
2018-12-17T13:09:09.344Z,2.60
2018-12-17T13:11:36.587Z,2.20
2018-12-17T13:14:03.967Z,2.00
2018-12-17T13:16:31.119Z,2.20
2018-12-17T13:18:58.288Z,1.97
2018-12-17T13:21:25.432Z,2.10
2018-12-17T13:23:52.597Z,2.07
2018-12-17T13:26:19.747Z,2.10
2018-12-17T13:28:46.924Z,2.00
2018-12-17T13:31:14.821Z,2.17
2018-12-17T13:33:42.132Z,2.40
2018-12-17T13:36:09.287Z,1.83
2018-12-17T13:38:36.435Z,2.00
2018-12-17T13:41:04.343Z,1.70
2018-12-17T13:43:31.505Z,4.20
2018-12-17T13:45:58.763Z,5.40
2018-12-17T13:48:25.936Z,5.60
2018-12-17T13:50:53.283Z,3.97
2018-12-17T13:53:25.844Z,3.57
2018-12-17T13:55:52.992Z,3.77
2018-12-17T13:58:20.160Z,2.20
2018-12-17T14:00:47.331Z,4.50
2018-12-17T14:03:14.508Z,2.70
2018-12-17T14:05:41.675Z,2.70
2018-12-17T14:08:08.840Z,2.33
2018-12-17T14:11:08.978Z,2.17
2018-12-17T14:13:36.146Z,1.83
2018-12-17T14:16:08.869Z,2.13
2018-12-17T14:18:41.305Z,1.80
2018-12-17T14:21:13.986Z,2.10
2018-12-17T14:23:41.149Z,1.77
2018-12-17T14:26:08.312Z,2.00
2018-12-17T14:28:35.544Z,1.87
2018-12-17T14:31:02.739Z,2.10
2018-12-17T14:33:29.937Z,1.90
2018-12-17T14:36:02.551Z,1.80
2018-12-17T14:38:29.832Z,1.83
2018-12-17T14:40:56.980Z,1.80
2018-12-17T14:43:24.173Z,2.20
2018-12-17T14:45:51.327Z,1.90
2018-12-17T14:48:18.493Z,1.80
2018-12-17T14:50:45.672Z,1.67
2018-12-17T14:53:12.823Z,1.70
2018-12-17T14:55:40.004Z,1.87
2018-12-17T14:58:07.163Z,1.50
2018-12-17T15:00:34.336Z,1.80
2018-12-17T15:03:01.521Z,1.80
2018-12-17T15:05:28.747Z,1.97
2018-12-17T15:07:55.922Z,1.60
2018-12-17T15:10:23.081Z,2.13
2018-12-17T15:12:50.240Z,2.23
2018-12-17T15:15:17.413Z,2.07
2018-12-17T15:17:44.555Z,2.03
2018-12-17T15:20:11.957Z,2.33
2018-12-17T15:22:39.145Z,2.47
2018-12-17T15:25:07.031Z,2.00
2018-12-17T15:27:34.308Z,2.70
2018-12-17T15:30:01.494Z,2.77
2018-12-17T15:32:28.717Z,3.30
2018-12-17T15:34:55.871Z,2.77
2018-12-17T15:37:23.035Z,2.27
2018-12-17T15:39:50.196Z,2.40
2018-12-17T15:42:17.348Z,2.67
2018-12-17T15:44:44.625Z,2.60
2018-12-17T15:47:11.795Z,2.47
2018-12-17T15:49:38.962Z,2.80
2018-12-17T15:52:06.164Z,2.73
2018-12-17T15:54:33.333Z,2.47
2018-12-17T15:57:00.559Z,2.50
2018-12-17T15:59:27.921Z,2.80
2018-12-17T16:01:55.100Z,2.80
2018-12-17T16:04:22.248Z,2.63
2018-12-17T16:06:49.444Z,2.50
2018-12-17T16:09:16.608Z,2.73
2018-12-17T16:11:43.788Z,2.57
2018-12-17T16:14:11.035Z,2.73
2018-12-17T16:16:38.232Z,2.63
2018-12-17T16:19:05.397Z,3.60
2018-12-17T16:21:32.555Z,2.87
2018-12-17T16:23:59.727Z,3.50
2018-12-17T16:26:26.887Z,3.10
2018-12-17T16:28:54.049Z,3.93
2018-12-17T16:31:21.224Z,3.50
2018-12-17T16:33:48.396Z,4.10
2018-12-17T16:36:15.647Z,4.10
2018-12-17T16:38:42.829Z,3.53
2018-12-17T16:41:10.033Z,3.43
2018-12-17T16:43:37.208Z,2.90
2018-12-17T16:46:04.445Z,3.03
2018-12-17T16:48:31.702Z,3.40
2018-12-17T16:50:58.856Z,2.80
2018-12-17T16:53:26.032Z,2.93
2018-12-17T16:55:53.201Z,3.10
2018-12-17T16:58:20.354Z,3.00
2018-12-17T17:00:47.523Z,2.87
2018-12-17T17:03:14.697Z,2.90
2018-12-17T17:05:41.863Z,3.67
2018-12-17T17:08:09.032Z,2.90
2018-12-17T17:10:36.204Z,3.40
2018-12-17T17:13:03.490Z,3.20
2018-12-17T17:15:30.659Z,2.80
2018-12-17T17:17:57.831Z,2.90
2018-12-17T17:20:24.988Z,2.93
2018-12-17T17:22:52.152Z,2.70
2018-12-17T17:25:19.316Z,2.87
2018-12-17T17:27:48.145Z,2.83
2018-12-17T17:30:15.493Z,3.20
2018-12-17T17:32:42.631Z,3.03
2018-12-17T17:35:09.791Z,3.60
2018-12-17T17:37:36.956Z,3.77
2018-12-17T17:40:04.264Z,3.57
2018-12-17T17:42:31.433Z,3.80
2018-12-17T17:44:58.592Z,3.30
2018-12-17T17:47:25.759Z,3.70
2018-12-17T17:49:52.925Z,4.33
2018-12-17T17:52:20.093Z,3.70
2018-12-17T17:54:47.322Z,3.83
2018-12-17T17:57:14.494Z,3.80
2018-12-17T17:59:41.672Z,4.07
2018-12-17T18:02:08.838Z,3.57
2018-12-17T18:04:35.997Z,3.50
2018-12-17T18:07:03.140Z,3.57
2018-12-17T18:09:30.308Z,3.63
2018-12-17T18:11:57.616Z,3.60
2018-12-17T18:14:24.772Z,3.37
2018-12-17T18:16:51.953Z,3.17
2018-12-17T18:19:19.138Z,3.33
2018-12-17T18:21:46.434Z,3.30
2018-12-17T18:24:13.575Z,3.17
2018-12-17T18:26:40.864Z,3.20
2018-12-17T18:29:08.046Z,3.73
2018-12-17T18:31:35.490Z,3.37
2018-12-17T18:34:02.689Z,3.37
2018-12-17T18:36:29.856Z,2.90
2018-12-17T18:38:57.229Z,3.60
2018-12-17T18:41:24.493Z,3.57
2018-12-17T18:43:51.758Z,3.90
2018-12-17T18:46:19.025Z,4.50
2018-12-17T18:48:46.213Z,4.87
2018-12-17T18:51:13.367Z,4.43
2018-12-17T18:53:40.536Z,5.00
2018-12-17T18:56:07.705Z,4.20
2018-12-17T18:58:35.165Z,3.70
2018-12-17T19:01:02.521Z,4.20
2018-12-17T19:03:29.665Z,3.60
2018-12-17T19:05:56.824Z,4.30
2018-12-17T19:08:24.044Z,4.60
2018-12-17T19:10:51.320Z,4.50
2018-12-17T19:13:18.885Z,3.93
2018-12-17T19:15:46.179Z,3.77
2018-12-17T19:18:13.340Z,4.20
2018-12-17T19:20:40.496Z,4.10
2018-12-17T19:23:08.710Z,3.77
2018-12-17T19:25:35.916Z,4.00
2018-12-17T19:28:03.289Z,3.63
2018-12-17T19:30:30.548Z,3.30
2018-12-17T19:32:57.792Z,3.90
2018-12-17T19:35:24.943Z,3.47
2018-12-17T19:37:52.107Z,3.60
2018-12-17T19:40:19.264Z,3.63
2018-12-17T19:42:46.423Z,3.77
2018-12-17T19:45:13.583Z,3.60
2018-12-17T19:47:40.756Z,3.67
2018-12-17T19:50:08.088Z,3.83
2018-12-17T19:52:41.985Z,4.10
2018-12-17T19:55:09.160Z,4.07
2018-12-17T19:57:36.352Z,3.90
2018-12-17T20:00:03.939Z,3.90
2018-12-17T20:02:31.112Z,4.13
2018-12-17T20:04:58.304Z,3.93
2018-12-17T20:07:25.477Z,4.17
2018-12-17T20:09:52.623Z,3.80
2018-12-17T20:12:19.888Z,4.30
2018-12-17T20:14:47.041Z,4.30
2018-12-17T20:17:14.366Z,4.67
2018-12-17T20:19:41.509Z,3.67
2018-12-17T20:22:08.898Z,4.87
2018-12-17T20:24:36.140Z,4.10
2018-12-17T20:27:03.312Z,4.47
2018-12-17T20:29:30.475Z,4.27
2018-12-17T20:31:57.648Z,3.60
2018-12-17T20:34:24.812Z,4.10
2018-12-17T20:36:51.968Z,3.50
2018-12-17T20:39:19.240Z,3.60
2018-12-17T20:41:46.399Z,4.00
2018-12-17T20:44:13.582Z,3.93
2018-12-17T20:46:40.732Z,4.20
2018-12-17T20:49:07.936Z,4.10
2018-12-17T20:51:35.103Z,3.60
2018-12-17T20:54:02.258Z,4.00
2018-12-17T20:56:29.426Z,3.80
2018-12-17T20:58:56.624Z,3.80
2018-12-17T21:01:23.796Z,3.80
2018-12-17T21:03:50.964Z,3.70
2018-12-17T21:06:18.156Z,4.20
2018-12-17T21:08:45.315Z,4.30
2018-12-17T21:11:12.610Z,4.53
2018-12-17T21:13:39.839Z,4.77
2018-12-17T21:16:07.009Z,4.93
2018-12-17T21:18:34.255Z,4.73
2018-12-17T21:21:01.434Z,5.10
2018-12-17T21:23:28.876Z,5.23
2018-12-17T21:25:56.056Z,5.00
2018-12-17T21:28:23.217Z,4.90
2018-12-17T21:30:50.351Z,5.53
2018-12-17T21:33:17.525Z,5.60
2018-12-17T21:35:44.672Z,5.50
2018-12-17T21:38:11.836Z,5.87
2018-12-17T21:40:39.000Z,5.27
2018-12-17T21:43:06.188Z,6.23
2018-12-17T21:45:33.437Z,5.57
2018-12-17T21:48:00.601Z,5.17
2018-12-17T21:50:27.796Z,5.50
2018-12-17T21:52:54.947Z,5.30
2018-12-17T21:55:22.113Z,5.47
2018-12-17T21:57:49.364Z,5.17
2018-12-17T22:01:19.664Z,4.60
2018-12-17T22:03:46.828Z,4.17
2018-12-17T22:06:14.080Z,4.30
2018-12-17T22:08:41.248Z,5.03
2018-12-17T22:11:08.395Z,4.63
2018-12-17T22:13:35.676Z,4.00
2018-12-17T22:16:02.908Z,4.40
2018-12-17T22:18:30.063Z,4.37
2018-12-17T22:20:57.219Z,4.50
2018-12-17T22:23:24.384Z,4.07
2018-12-17T22:25:51.544Z,4.83
2018-12-17T22:28:18.716Z,5.70
2018-12-17T22:30:45.869Z,6.27
2018-12-17T22:33:13.032Z,7.50
2018-12-17T22:35:40.182Z,7.23
2018-12-17T22:38:07.352Z,6.57
2018-12-17T22:40:34.600Z,6.27
2018-12-17T22:43:01.767Z,6.53
2018-12-17T22:45:29.219Z,6.07
2018-12-17T22:47:56.517Z,5.63
2018-12-17T22:50:23.717Z,5.27
2018-12-17T22:52:50.865Z,5.07
2018-12-17T22:55:18.032Z,5.10
2018-12-17T22:57:45.266Z,5.40
2018-12-17T23:00:12.529Z,4.87
2018-12-17T23:02:39.684Z,4.97
2018-12-17T23:05:06.956Z,5.20
2018-12-17T23:07:34.133Z,5.27
2018-12-17T23:10:06.896Z,5.30
2018-12-17T23:12:39.799Z,4.90
2018-12-17T23:15:12.683Z,5.60
2018-12-17T23:17:40.390Z,5.50
2018-12-17T23:20:08.367Z,5.03
2018-12-17T23:22:36.429Z,4.63
2018-12-17T23:25:03.899Z,4.80
2018-12-17T23:27:31.788Z,4.73
2018-12-17T23:29:58.967Z,4.50
2018-12-17T23:32:28.133Z,5.00
2018-12-17T23:34:55.409Z,4.60
2018-12-17T23:37:22.612Z,4.73
2018-12-17T23:39:49.772Z,4.60
2018-12-17T23:42:16.933Z,4.67
2018-12-17T23:44:44.100Z,4.53
2018-12-17T23:47:11.268Z,4.83
2018-12-17T23:49:38.567Z,4.40
2018-12-17T23:52:05.716Z,4.20
2018-12-17T23:54:32.890Z,4.70
2018-12-17T23:57:00.169Z,4.33
2018-12-17T23:59:27.343Z,5.20
